createdAt,value
2023-03-06T00:00:04.885Z,0
2023-03-06T00:01:05.050Z,0
2023-03-06T00:02:05.249Z,0
2023-03-06T00:03:05.401Z,0
2023-03-06T00:04:05.644Z,0
2023-03-06T00:05:06.043Z,0
2023-03-06T00:06:06.257Z,0
2023-03-06T00:07:06.572Z,0
2023-03-06T00:08:06.741Z,0
2023-03-06T00:09:06.916Z,0
2023-03-06T00:10:07.064Z,0
2023-03-06T00:11:07.217Z,0
2023-03-06T00:12:07.377Z,0
2023-03-06T00:13:07.533Z,0
2023-03-06T00:14:07.703Z,0
2023-03-06T00:15:07.871Z,0
2023-03-06T00:16:08.063Z,0
2023-03-06T00:17:08.281Z,0
2023-03-06T00:18:08.429Z,0
2023-03-06T00:19:08.630Z,0
2023-03-06T00:20:08.795Z,0
2023-03-06T00:21:08.976Z,0
2023-03-06T00:22:09.144Z,0
2023-03-06T00:23:09.308Z,0
2023-03-06T00:24:09.489Z,0
2023-03-06T00:25:09.651Z,0
2023-03-06T00:26:09.806Z,0
2023-03-06T00:27:09.963Z,0
2023-03-06T00:28:10.128Z,0
2023-03-06T00:29:10.805Z,0
2023-03-06T00:30:10.975Z,0
2023-03-06T00:31:11.150Z,0
2023-03-06T00:32:11.479Z,0
2023-03-06T00:33:11.742Z,0
2023-03-06T00:34:11.900Z,0
2023-03-06T00:35:12.057Z,0
2023-03-06T00:36:12.224Z,0
2023-03-06T00:37:12.375Z,0
2023-03-06T00:38:12.532Z,0
2023-03-06T00:39:12.774Z,0
2023-03-06T00:40:12.967Z,0
2023-03-06T00:41:13.164Z,0
2023-03-06T00:42:13.365Z,0
2023-03-06T00:43:13.530Z,0
2023-03-06T00:44:13.696Z,0
2023-03-06T00:45:13.854Z,0
2023-03-06T00:46:14.034Z,0
2023-03-06T00:47:14.198Z,0
2023-03-06T00:48:14.352Z,0
2023-03-06T00:49:14.541Z,0
2023-03-06T00:50:14.707Z,0
2023-03-06T00:51:14.913Z,0
2023-03-06T00:52:15.075Z,0
2023-03-06T00:53:15.236Z,0
2023-03-06T00:54:15.394Z,0
2023-03-06T00:55:15.556Z,0
2023-03-06T00:56:15.743Z,0
2023-03-06T00:57:16.328Z,0
2023-03-06T00:58:16.470Z,0
2023-03-06T00:59:16.625Z,0
2023-03-06T01:00:16.772Z,0
2023-03-06T01:01:17.017Z,0
2023-03-06T01:02:17.414Z,0
2023-03-06T01:03:17.805Z,0
2023-03-06T01:04:17.979Z,0
2023-03-06T01:05:18.156Z,0
2023-03-06T01:06:18.313Z,0
2023-03-06T01:07:18.470Z,0
2023-03-06T01:08:18.626Z,0
2023-03-06T01:09:18.790Z,0
2023-03-06T01:10:18.934Z,0
2023-03-06T01:11:19.089Z,0
2023-03-06T01:12:20.881Z,0
2023-03-06T01:13:23.766Z,0
2023-03-06T01:14:23.918Z,0
2023-03-06T01:15:24.066Z,0
2023-03-06T01:16:24.245Z,0
2023-03-06T01:17:24.519Z,0
2023-03-06T01:18:24.683Z,0
2023-03-06T01:19:24.832Z,0
2023-03-06T01:20:24.977Z,0
2023-03-06T01:21:25.152Z,0
2023-03-06T01:22:25.327Z,0
2023-03-06T01:23:25.490Z,0
2023-03-06T01:24:25.657Z,0
2023-03-06T01:25:26.052Z,0
2023-03-06T01:26:26.224Z,0
2023-03-06T01:27:26.376Z,0
2023-03-06T01:28:26.544Z,0
2023-03-06T01:29:26.689Z,0
2023-03-06T01:30:26.970Z,0
2023-03-06T01:31:27.265Z,0
2023-03-06T01:32:27.609Z,0
2023-03-06T01:33:27.880Z,0
2023-03-06T01:34:28.036Z,0
2023-03-06T01:35:28.216Z,0
2023-03-06T01:36:28.507Z,0
2023-03-06T01:37:28.668Z,0
2023-03-06T01:38:28.821Z,0
2023-03-06T01:39:28.975Z,0
2023-03-06T01:40:29.134Z,0
2023-03-06T01:41:29.304Z,0
2023-03-06T01:42:31.390Z,0
2023-03-06T01:43:32.374Z,0
2023-03-06T01:44:32.521Z,0
2023-03-06T01:45:32.711Z,0
2023-03-06T01:46:32.937Z,0
2023-03-06T01:47:33.090Z,0
2023-03-06T01:48:33.263Z,0
2023-03-06T01:49:33.421Z,0
2023-03-06T01:50:33.577Z,0
2023-03-06T01:51:33.732Z,0
2023-03-06T01:52:33.889Z,0
2023-03-06T01:53:34.044Z,0
2023-03-06T01:54:34.240Z,0
2023-03-06T01:55:34.411Z,0
2023-03-06T01:56:34.584Z,0
2023-03-06T01:57:34.759Z,0
2023-03-06T01:58:34.919Z,0
2023-03-06T01:59:35.092Z,0
2023-03-06T02:00:35.239Z,0
2023-03-06T02:01:35.383Z,0
2023-03-06T02:02:35.624Z,0
2023-03-06T02:03:36.003Z,0
2023-03-06T02:04:36.155Z,0
2023-03-06T02:05:36.315Z,0
2023-03-06T02:06:36.477Z,0
2023-03-06T02:07:36.651Z,0
2023-03-06T02:08:36.808Z,0
2023-03-06T02:09:36.962Z,0
2023-03-06T02:10:37.123Z,0
2023-03-06T02:11:37.356Z,0
2023-03-06T02:12:37.813Z,0
2023-03-06T02:13:37.975Z,0
2023-03-06T02:14:38.151Z,0
2023-03-06T02:15:38.320Z,0
2023-03-06T02:16:38.493Z,0
2023-03-06T02:17:38.754Z,0
2023-03-06T02:18:38.898Z,0
2023-03-06T02:19:39.062Z,0
2023-03-06T02:20:39.226Z,0
2023-03-06T02:21:39.366Z,0
2023-03-06T02:22:39.517Z,0
2023-03-06T02:23:39.671Z,0
2023-03-06T02:24:39.821Z,0
2023-03-06T02:25:39.984Z,0
2023-03-06T02:26:40.162Z,0
2023-03-06T02:27:40.319Z,0
2023-03-06T02:28:40.473Z,0
2023-03-06T02:29:40.634Z,0
2023-03-06T02:30:40.849Z,0
2023-03-06T02:31:41.193Z,0
2023-03-06T02:32:41.340Z,0
2023-03-06T02:33:41.487Z,0
2023-03-06T02:34:41.642Z,0
2023-03-06T02:35:41.824Z,0
2023-03-06T02:36:42.115Z,0
2023-03-06T02:37:42.280Z,0
2023-03-06T02:38:42.429Z,0
2023-03-06T02:39:42.576Z,0
2023-03-06T02:40:42.725Z,0
2023-03-06T02:41:42.882Z,0
2023-03-06T02:42:43.048Z,0
2023-03-06T02:43:43.201Z,0
2023-03-06T02:44:43.351Z,0
2023-03-06T02:45:43.564Z,0
2023-03-06T02:46:43.749Z,0
2023-03-06T02:47:43.922Z,0
2023-03-06T02:48:44.062Z,0
2023-03-06T02:49:44.242Z,0
2023-03-06T02:50:44.426Z,0
2023-03-06T02:51:44.622Z,0
2023-03-06T02:52:44.786Z,0
2023-03-06T02:53:44.944Z,0
2023-03-06T02:54:45.130Z,0
2023-03-06T02:55:45.302Z,0
2023-03-06T02:56:45.470Z,0
2023-03-06T02:57:45.620Z,0
2023-03-06T02:58:45.770Z,0
2023-03-06T02:59:45.927Z,0
2023-03-06T03:00:46.081Z,0
2023-03-06T03:01:46.265Z,0
2023-03-06T03:02:46.528Z,0
2023-03-06T03:03:46.683Z,0
2023-03-06T03:04:46.845Z,0
2023-03-06T03:05:47.113Z,0
2023-03-06T03:06:47.276Z,0
2023-03-06T03:07:47.428Z,0
2023-03-06T03:08:47.583Z,0
2023-03-06T03:09:47.740Z,0
2023-03-06T03:10:47.898Z,0
2023-03-06T03:11:48.064Z,0
2023-03-06T03:12:48.217Z,0
2023-03-06T03:13:48.370Z,0
2023-03-06T03:14:48.558Z,0
2023-03-06T03:15:48.735Z,0
2023-03-06T03:16:49.065Z,0
2023-03-06T03:17:49.223Z,0
2023-03-06T03:18:49.372Z,0
2023-03-06T03:19:49.532Z,0
2023-03-06T03:20:49.680Z,0
2023-03-06T03:21:49.838Z,0
2023-03-06T03:22:49.997Z,0
2023-03-06T03:23:50.178Z,0
2023-03-06T03:24:50.387Z,0
2023-03-06T03:25:50.853Z,0
2023-03-06T03:26:51.006Z,0
2023-03-06T03:27:51.147Z,0
2023-03-06T03:28:51.290Z,0
2023-03-06T03:29:51.440Z,0
2023-03-06T03:30:51.624Z,0
2023-03-06T03:31:51.955Z,0
2023-03-06T03:32:52.101Z,0
2023-03-06T03:33:52.246Z,0
2023-03-06T03:34:52.405Z,0
2023-03-06T03:35:52.612Z,0
2023-03-06T03:36:52.897Z,0
2023-03-06T03:37:53.054Z,0
2023-03-06T03:38:53.204Z,0
2023-03-06T03:39:53.348Z,0
2023-03-06T03:40:53.500Z,0
2023-03-06T03:41:53.681Z,0
2023-03-06T03:42:53.846Z,0
2023-03-06T03:43:54.011Z,0
2023-03-06T03:44:54.193Z,0
2023-03-06T03:45:54.359Z,0
2023-03-06T03:46:54.554Z,0
2023-03-06T03:47:54.705Z,0
2023-03-06T03:48:54.854Z,0
2023-03-06T03:49:55.017Z,0
2023-03-06T03:50:55.190Z,0
2023-03-06T03:51:55.345Z,0
2023-03-06T03:52:55.494Z,0
2023-03-06T03:53:55.655Z,0
2023-03-06T03:54:55.798Z,0
2023-03-06T03:55:55.949Z,0
2023-03-06T03:56:56.094Z,0
2023-03-06T03:57:56.255Z,0
2023-03-06T03:58:56.421Z,0
2023-03-06T03:59:56.579Z,0
2023-03-06T04:00:56.760Z,0
2023-03-06T04:01:56.939Z,0
2023-03-06T04:02:57.248Z,0
2023-03-06T04:03:57.440Z,0
2023-03-06T04:04:57.682Z,0
2023-03-06T04:05:58.112Z,0
2023-03-06T04:06:58.359Z,0
2023-03-06T04:07:58.531Z,0
2023-03-06T04:08:58.696Z,0
2023-03-06T04:09:58.878Z,0
2023-03-06T04:10:59.040Z,0
2023-03-06T04:11:59.206Z,0
2023-03-06T04:12:59.360Z,0
2023-03-06T04:13:59.586Z,0
2023-03-06T04:14:59.743Z,0
2023-03-06T04:15:59.965Z,0
2023-03-06T04:17:00.257Z,0
2023-03-06T04:18:00.418Z,0
2023-03-06T04:19:00.593Z,0
2023-03-06T04:20:00.753Z,0
2023-03-06T04:21:00.918Z,0
2023-03-06T04:22:01.064Z,0
2023-03-06T04:23:01.222Z,0
2023-03-06T04:24:01.390Z,0
2023-03-06T04:25:01.549Z,0
2023-03-06T04:26:01.725Z,0
2023-03-06T04:27:01.873Z,0
2023-03-06T04:28:02.046Z,0
2023-03-06T04:29:02.192Z,0
2023-03-06T04:30:02.340Z,0
2023-03-06T04:31:02.569Z,0
2023-03-06T04:32:03.292Z,0
2023-03-06T04:33:03.711Z,0
2023-03-06T04:34:03.889Z,0
2023-03-06T04:35:04.077Z,0
2023-03-06T04:36:04.231Z,0
2023-03-06T04:37:04.385Z,0
2023-03-06T04:38:04.542Z,0
2023-03-06T04:39:04.805Z,0
2023-03-06T04:40:05.137Z,0
2023-03-06T04:41:05.828Z,0
2023-03-06T04:42:06.436Z,0
2023-03-06T04:43:06.606Z,0
2023-03-06T04:44:06.761Z,0
2023-03-06T04:45:06.915Z,0
2023-03-06T04:46:07.178Z,0
2023-03-06T04:47:07.497Z,0
2023-03-06T04:48:08.315Z,0
2023-03-06T04:49:08.489Z,0
2023-03-06T04:50:08.650Z,0
2023-03-06T04:51:08.819Z,0
2023-03-06T04:52:08.988Z,0
2023-03-06T04:53:09.150Z,0
2023-03-06T04:54:09.314Z,0
2023-03-06T04:55:09.476Z,0
2023-03-06T04:56:09.629Z,0
2023-03-06T04:57:09.821Z,0
2023-03-06T04:58:09.984Z,0
2023-03-06T04:59:10.144Z,0
2023-03-06T05:00:10.292Z,0
2023-03-06T05:01:10.496Z,0
2023-03-06T05:02:11.090Z,0
2023-03-06T05:03:11.433Z,0
2023-03-06T05:04:11.612Z,0
2023-03-06T05:05:11.766Z,0
2023-03-06T05:06:11.946Z,0
2023-03-06T05:07:12.117Z,0
2023-03-06T05:08:12.345Z,0
2023-03-06T05:09:12.497Z,0
2023-03-06T05:10:12.661Z,0
2023-03-06T05:11:12.841Z,0
2023-03-06T05:12:13.024Z,0
2023-03-06T05:13:13.177Z,0
2023-03-06T05:14:13.375Z,0
2023-03-06T05:15:13.849Z,0
2023-03-06T05:16:14.161Z,0
2023-03-06T05:17:14.434Z,0
2023-03-06T05:18:14.580Z,0
2023-03-06T05:19:14.724Z,0
2023-03-06T05:20:14.876Z,0
2023-03-06T05:21:15.030Z,0
2023-03-06T05:22:15.177Z,0
2023-03-06T05:23:15.328Z,0
2023-03-06T05:24:15.493Z,0
2023-03-06T05:25:15.646Z,0
2023-03-06T05:26:15.801Z,0
2023-03-06T05:27:16.963Z,0
2023-03-06T05:28:17.177Z,0
2023-03-06T05:29:17.328Z,0
2023-03-06T05:30:17.483Z,0
2023-03-06T05:31:17.660Z,0
2023-03-06T05:32:18.007Z,0
2023-03-06T05:33:18.252Z,0
2023-03-06T05:34:18.408Z,0
2023-03-06T05:35:18.690Z,0
2023-03-06T05:36:18.983Z,0
2023-03-06T05:37:19.135Z,0
2023-03-06T05:38:19.904Z,0
2023-03-06T05:39:20.071Z,0
2023-03-06T05:40:20.242Z,1
2023-03-06T05:41:20.397Z,2
2023-03-06T05:42:20.552Z,4
2023-03-06T05:43:20.721Z,5
2023-03-06T05:44:20.897Z,6
2023-03-06T05:45:21.083Z,8
2023-03-06T05:46:21.272Z,10
2023-03-06T05:47:21.539Z,11
2023-03-06T05:48:21.699Z,13
2023-03-06T05:49:21.854Z,15
2023-03-06T05:50:22.008Z,17
2023-03-06T05:51:22.180Z,19
2023-03-06T05:52:22.346Z,21
2023-03-06T05:53:22.497Z,21
2023-03-06T05:54:22.641Z,24
2023-03-06T05:55:23.017Z,27
2023-03-06T05:56:23.172Z,27
2023-03-06T05:57:23.332Z,30
2023-03-06T05:58:23.512Z,30
2023-03-06T05:59:23.663Z,30
2023-03-06T06:00:23.811Z,33
2023-03-06T06:01:23.986Z,33
2023-03-06T06:02:24.201Z,37
2023-03-06T06:03:24.446Z,37
2023-03-06T06:04:24.740Z,41
2023-03-06T06:05:24.916Z,46
2023-03-06T06:06:25.070Z,51
2023-03-06T06:07:25.255Z,51
2023-03-06T06:08:25.409Z,57
2023-03-06T06:09:25.560Z,63
2023-03-06T06:10:25.723Z,70
2023-03-06T06:11:25.884Z,77
2023-03-06T06:12:26.054Z,86
2023-03-06T06:13:26.227Z,94.96
2023-03-06T06:14:26.384Z,110
2023-03-06T06:15:26.541Z,110
2023-03-06T06:16:26.698Z,110
2023-03-06T06:17:26.864Z,110
2023-03-06T06:18:27.027Z,130
2023-03-06T06:19:27.178Z,130
2023-03-06T06:20:27.329Z,130
2023-03-06T06:21:27.530Z,130
2023-03-06T06:22:27.734Z,130
2023-03-06T06:23:27.896Z,150
2023-03-06T06:24:28.041Z,169.92
2023-03-06T06:25:28.204Z,189.92
2023-03-06T06:26:28.354Z,209.92
2023-03-06T06:27:28.500Z,240
2023-03-06T06:28:28.670Z,300
2023-03-06T06:29:28.824Z,329.92
2023-03-06T06:30:29.001Z,369.92
2023-03-06T06:31:29.264Z,409.92
2023-03-06T06:32:29.640Z,409.92
2023-03-06T06:33:29.916Z,409.92
2023-03-06T06:34:30.073Z,409.92
2023-03-06T06:35:30.238Z,409.92
2023-03-06T06:36:30.514Z,459.84
2023-03-06T06:37:30.693Z,459.84
2023-03-06T06:38:30.859Z,459.84
2023-03-06T06:39:31.033Z,459.84
2023-03-06T06:40:31.219Z,459.84
2023-03-06T06:41:46.513Z,509.76
2023-03-06T06:43:33.247Z,569.92
2023-03-06T06:44:33.396Z,569.92
2023-03-06T06:45:33.561Z,629.76
2023-03-06T06:47:18.077Z,629.76
2023-03-06T06:48:25.703Z,729.6
2023-03-06T06:49:25.895Z,800
2023-03-06T06:50:26.052Z,800
2023-03-06T06:51:26.214Z,800
2023-03-06T06:52:26.407Z,800
2023-03-06T06:53:27.440Z,800
2023-03-06T06:54:28.390Z,880
2023-03-06T06:55:28.602Z,880
2023-03-06T06:56:28.758Z,880
2023-03-06T06:57:28.931Z,880
2023-03-06T06:58:29.078Z,880
2023-03-06T06:59:29.231Z,880
2023-03-06T07:00:29.405Z,969.6
2023-03-06T07:01:29.729Z,969.6
2023-03-06T07:02:30.016Z,969.6
2023-03-06T07:03:30.190Z,969.6
2023-03-06T07:04:30.355Z,1079.68
2023-03-06T07:05:30.507Z,1079.68
2023-03-06T07:06:30.656Z,1200
2023-03-06T07:07:30.828Z,1200
2023-03-06T07:08:30.988Z,1200
2023-03-06T07:09:31.153Z,1319.68
2023-03-06T07:10:31.355Z,1319.68
2023-03-06T07:11:31.506Z,1319.68
2023-03-06T07:12:31.808Z,1319.68
2023-03-06T07:13:31.982Z,1319.68
2023-03-06T07:14:32.197Z,1319.68
2023-03-06T07:15:32.340Z,1319.68
2023-03-06T07:16:32.498Z,1319.68
2023-03-06T07:17:32.705Z,1459.2
2023-03-06T07:18:32.889Z,1459.2
2023-03-06T07:19:33.123Z,1459.2
2023-03-06T07:20:33.274Z,1459.2
2023-03-06T07:21:33.426Z,1459.2
2023-03-06T07:22:41.519Z,1459.2
2023-03-06T07:23:52.161Z,1459.2
2023-03-06T07:24:52.316Z,1459.2
2023-03-06T07:25:52.476Z,1459.2
2023-03-06T07:26:52.649Z,1459.2
2023-03-06T07:27:54.125Z,1299.84
2023-03-06T07:28:54.956Z,1299.84
2023-03-06T07:29:55.373Z,1299.84
2023-03-06T07:30:55.552Z,1299.84
2023-03-06T07:31:55.839Z,1299.84
2023-03-06T07:32:56.045Z,1299.84
2023-03-06T07:33:56.202Z,1299.84
2023-03-06T07:35:06.257Z,1299.84
2023-03-06T07:36:29.538Z,1280
2023-03-06T07:37:29.692Z,1259.52
2023-03-06T07:38:29.843Z,1259.52
2023-03-06T07:39:30.033Z,1259.52
2023-03-06T07:40:30.244Z,1259.52
2023-03-06T07:41:30.406Z,1399.04
2023-03-06T07:42:30.567Z,1399.04
2023-03-06T07:43:30.739Z,1399.04
2023-03-06T07:44:30.898Z,1539.84
2023-03-06T07:45:31.049Z,1539.84
2023-03-06T07:46:31.277Z,1539.84
2023-03-06T07:47:31.754Z,1699.84
2023-03-06T07:48:31.913Z,1699.84
2023-03-06T07:49:32.067Z,1699.84
2023-03-06T07:50:32.222Z,1879.04
2023-03-06T07:51:32.392Z,1879.04
2023-03-06T07:52:32.570Z,1879.04
2023-03-06T07:53:32.805Z,1879.04
2023-03-06T07:54:32.965Z,1879.04
2023-03-06T07:55:33.130Z,1879.04
2023-03-06T07:56:33.290Z,1879.04
2023-03-06T07:57:33.448Z,1879.04
2023-03-06T07:58:33.609Z,1879.04
2023-03-06T07:59:33.789Z,1879.04
2023-03-06T08:00:33.949Z,1799.68
2023-03-06T08:01:34.121Z,1799.68
2023-03-06T08:02:34.298Z,1799.68
2023-03-06T08:03:34.665Z,1799.68
2023-03-06T08:04:34.993Z,1978.88
2023-03-06T08:05:35.173Z,1978.88
2023-03-06T08:06:35.325Z,1978.88
2023-03-06T08:07:35.489Z,1978.88
2023-03-06T08:08:35.663Z,2179.84
2023-03-06T08:09:35.838Z,2179.84
2023-03-06T08:10:36.016Z,2179.84
2023-03-06T08:11:36.223Z,2400
2023-03-06T08:12:36.391Z,2400
2023-03-06T08:13:36.550Z,2400
2023-03-06T08:14:36.742Z,2659.84
2023-03-06T08:15:36.895Z,2659.84
2023-03-06T08:16:37.122Z,2938.88
2023-03-06T08:17:37.399Z,2938.88
2023-03-06T08:18:37.547Z,2938.88
2023-03-06T08:19:37.721Z,2938.88
2023-03-06T08:20:37.871Z,2938.88
2023-03-06T08:21:38.030Z,2938.88
2023-03-06T08:22:38.202Z,2938.88
2023-03-06T08:23:38.362Z,2938.88
2023-03-06T08:24:38.776Z,2938.88
2023-03-06T08:25:38.940Z,2938.88
2023-03-06T08:26:39.093Z,3159.04
2023-03-06T08:27:39.270Z,3159.04
2023-03-06T08:28:39.436Z,3159.04
2023-03-06T08:29:39.599Z,3159.04
2023-03-06T08:30:39.764Z,3159.04
2023-03-06T08:31:39.982Z,2839.04
2023-03-06T08:32:40.520Z,2839.04
2023-03-06T08:33:41.046Z,2839.04
2023-03-06T08:34:41.214Z,2539.52
2023-03-06T08:35:41.427Z,2539.52
2023-03-06T08:36:41.768Z,2279.68
2023-03-06T08:37:42.001Z,2279.68
2023-03-06T08:38:42.313Z,2279.68
2023-03-06T08:39:42.479Z,2279.68
2023-03-06T08:40:42.627Z,2279.68
2023-03-06T08:41:42.797Z,2279.68
2023-03-06T08:42:42.952Z,2279.68
2023-03-06T08:43:43.103Z,2279.68
2023-03-06T08:44:43.281Z,2279.68
2023-03-06T08:45:43.471Z,2279.68
2023-03-06T08:46:43.770Z,2159.36
2023-03-06T08:47:43.928Z,2159.36
2023-03-06T08:48:44.081Z,2159.36
2023-03-06T08:49:44.239Z,2159.36
2023-03-06T08:50:44.398Z,2379.52
2023-03-06T08:51:44.551Z,2379.52
2023-03-06T08:52:44.737Z,2618.88
2023-03-06T08:53:44.902Z,2618.88
2023-03-06T08:54:45.065Z,2897.92
2023-03-06T08:55:45.228Z,3200
2023-03-06T08:56:45.404Z,3537.92
2023-03-06T08:57:45.554Z,3898.88
2023-03-06T08:58:45.710Z,3898.88
2023-03-06T08:59:45.877Z,3898.88
2023-03-06T09:00:46.105Z,3898.88
2023-03-06T09:01:46.739Z,3898.88
2023-03-06T09:02:46.882Z,4318.72
2023-03-06T09:03:47.037Z,4318.72
2023-03-06T09:04:47.240Z,4318.72
2023-03-06T09:05:47.415Z,3878.4
2023-03-06T09:06:47.580Z,3878.4
2023-03-06T09:07:47.734Z,3878.4
2023-03-06T09:08:47.900Z,4277.76
2023-03-06T09:09:48.069Z,4738.56
2023-03-06T09:10:48.279Z,4738.56
2023-03-06T09:11:48.559Z,5258.24
2023-03-06T09:12:50.797Z,5258.24
2023-03-06T09:13:55.527Z,5596.16
2023-03-06T09:14:55.687Z,5795.84
2023-03-06T09:15:55.824Z,5795.84
2023-03-06T09:16:56.062Z,5795.84
2023-03-06T09:17:56.393Z,5795.84
2023-03-06T09:18:56.714Z,5795.84
2023-03-06T09:19:56.883Z,5795.84
2023-03-06T09:20:57.051Z,5795.84
2023-03-06T09:21:57.213Z,5795.84
2023-03-06T09:22:57.377Z,5795.84
2023-03-06T09:23:57.547Z,5795.84
2023-03-06T09:24:57.736Z,5975.04
2023-03-06T09:25:57.912Z,5975.04
2023-03-06T09:26:58.063Z,5975.04
2023-03-06T09:28:10.342Z,5975.04
2023-03-06T09:29:12.626Z,6497.28
2023-03-06T09:30:12.937Z,6599.68
2023-03-06T09:31:13.159Z,6599.68
2023-03-06T09:32:13.649Z,6599.68
2023-03-06T09:33:13.943Z,6599.68
2023-03-06T09:34:14.094Z,6599.68
2023-03-06T09:35:14.279Z,6599.68
2023-03-06T09:36:14.452Z,7296
2023-03-06T09:37:16.248Z,7296
2023-03-06T09:38:17.549Z,7296
2023-03-06T09:39:17.721Z,7296
2023-03-06T09:40:17.902Z,7296
2023-03-06T09:41:18.234Z,8079.36
2023-03-06T09:42:18.376Z,8079.36
2023-03-06T09:43:18.528Z,8079.36
2023-03-06T09:44:18.648Z,8079.36
2023-03-06T09:45:18.803Z,8079.36
2023-03-06T09:46:19.026Z,8079.36
2023-03-06T09:47:19.329Z,8079.36
2023-03-06T09:48:19.465Z,8079.36
2023-03-06T09:49:19.612Z,8079.36
2023-03-06T09:50:19.748Z,8079.36
2023-03-06T09:51:19.893Z,8258.56
2023-03-06T09:52:20.043Z,8258.56
2023-03-06T09:53:20.204Z,9098.24
2023-03-06T09:54:20.350Z,9098.24
2023-03-06T09:55:20.512Z,9098.24
2023-03-06T09:56:20.660Z,9098.24
2023-03-06T09:57:20.800Z,9098.24
2023-03-06T09:58:20.959Z,9098.24
2023-03-06T09:59:21.107Z,9098.24
2023-03-06T10:00:21.244Z,9098.24
2023-03-06T10:01:21.392Z,9098.24
2023-03-06T10:02:21.567Z,10199.04
2023-03-06T10:03:22.068Z,10199.04
2023-03-06T10:04:22.346Z,10199.04
2023-03-06T10:05:22.578Z,11796.48
2023-03-06T10:06:22.850Z,11796.48
2023-03-06T10:07:22.998Z,11796.48
2023-03-06T10:08:23.167Z,11796.48
2023-03-06T10:09:23.312Z,11796.48
2023-03-06T10:10:23.454Z,11796.48
2023-03-06T10:11:23.599Z,11796.48
2023-03-06T10:12:24.864Z,11796.48
2023-03-06T10:13:25.211Z,11796.48
2023-03-06T10:14:25.380Z,11796.48
2023-03-06T10:15:25.707Z,11192.32
2023-03-06T10:16:26.125Z,11192.32
2023-03-06T10:17:26.277Z,11192.32
2023-03-06T10:18:26.407Z,11192.32
2023-03-06T10:19:26.580Z,11192.32
2023-03-06T10:20:26.766Z,11192.32
2023-03-06T10:21:26.907Z,11192.32
2023-03-06T10:22:27.053Z,11192.32
2023-03-06T10:23:27.190Z,11192.32
2023-03-06T10:24:27.359Z,11192.32
2023-03-06T10:25:27.499Z,10792.96
2023-03-06T10:26:27.749Z,10792.96
2023-03-06T10:27:28.296Z,10792.96
2023-03-06T10:28:28.448Z,11991.04
2023-03-06T10:29:28.583Z,11991.04
2023-03-06T10:30:28.741Z,11991.04
2023-03-06T10:31:28.989Z,11991.04
2023-03-06T10:32:36.798Z,11991.04
2023-03-06T10:33:49.760Z,13199.36
2023-03-06T10:34:49.901Z,13199.36
2023-03-06T10:35:50.085Z,13199.36
2023-03-06T10:36:50.370Z,14592
2023-03-06T10:37:50.529Z,14592
2023-03-06T10:38:50.695Z,14592
2023-03-06T10:39:50.864Z,14592
2023-03-06T10:40:51.053Z,14592
2023-03-06T10:41:51.200Z,14592
2023-03-06T10:42:58.671Z,14592
2023-03-06T10:44:12.361Z,14397.44
2023-03-06T10:45:12.517Z,12994.56
2023-03-06T10:46:12.744Z,12994.56
2023-03-06T10:47:13.083Z,12994.56
2023-03-06T10:48:13.208Z,12994.56
2023-03-06T10:49:13.357Z,12994.56
2023-03-06T10:50:13.485Z,12994.56
2023-03-06T10:51:18.395Z,12994.56
2023-03-06T10:52:19.462Z,12595.2
2023-03-06T10:53:19.590Z,12595.2
2023-03-06T10:54:19.737Z,12595.2
2023-03-06T10:55:19.861Z,12390.4
2023-03-06T10:56:19.990Z,12390.4
2023-03-06T10:57:20.122Z,12390.4
2023-03-06T10:58:20.279Z,10997.76
2023-03-06T10:59:20.419Z,10997.76
2023-03-06T11:00:20.743Z,10997.76
2023-03-06T11:01:21.257Z,10997.76
2023-03-06T11:02:21.504Z,10997.76
2023-03-06T11:03:21.652Z,9835.52
2023-03-06T11:04:21.887Z,9835.52
2023-03-06T11:05:22.193Z,9835.52
2023-03-06T11:06:22.337Z,9835.52
2023-03-06T11:07:22.848Z,9835.52
2023-03-06T11:08:23.020Z,9835.52
2023-03-06T11:09:23.184Z,9835.52
2023-03-06T11:10:23.333Z,9835.52
2023-03-06T11:11:36.663Z,8796.16
2023-03-06T11:12:38.322Z,8458.24
2023-03-06T11:13:38.471Z,8458.24
2023-03-06T11:14:38.626Z,8458.24
2023-03-06T11:15:38.887Z,8458.24
2023-03-06T11:16:39.031Z,8458.24
2023-03-06T11:17:39.206Z,8458.24
2023-03-06T11:18:39.362Z,8458.24
2023-03-06T11:19:39.500Z,8458.24
2023-03-06T11:20:50.820Z,7915.52
2023-03-06T11:21:53.446Z,7096.32
2023-03-06T11:22:53.583Z,7096.32
2023-03-06T11:23:53.715Z,7096.32
2023-03-06T11:24:53.871Z,7096.32
2023-03-06T11:25:54.009Z,7838.72
2023-03-06T11:26:54.170Z,7838.72
2023-03-06T11:27:54.333Z,7838.72
2023-03-06T11:28:54.575Z,7838.72
2023-03-06T11:29:54.861Z,7838.72
2023-03-06T11:30:55.013Z,8678.4
2023-03-06T11:31:55.149Z,8678.4
2023-03-06T11:32:55.416Z,8678.4
2023-03-06T11:33:55.563Z,8678.4
2023-03-06T11:34:55.696Z,8678.4
2023-03-06T11:35:55.862Z,8678.4
2023-03-06T11:36:56.108Z,9615.36
2023-03-06T11:37:56.244Z,9615.36
2023-03-06T11:38:56.376Z,9615.36
2023-03-06T11:39:56.508Z,10598.4
2023-03-06T11:40:56.641Z,10598.4
2023-03-06T11:41:56.769Z,10598.4
2023-03-06T11:42:56.915Z,11796.48
2023-03-06T11:43:57.063Z,13199.36
2023-03-06T11:44:57.203Z,19998.72
2023-03-06T11:45:57.356Z,28180.48
2023-03-06T11:46:57.523Z,30781.44
2023-03-06T11:47:57.775Z,39997.44
2023-03-06T11:48:57.916Z,43991.04
2023-03-06T11:49:58.042Z,29184
2023-03-06T11:50:58.189Z,22794.24
2023-03-06T11:51:58.345Z,22794.24
2023-03-06T11:52:58.471Z,33587.2
2023-03-06T11:53:58.628Z,34181.12
2023-03-06T11:54:58.799Z,30187.52
2023-03-06T11:55:58.969Z,26398.72
2023-03-06T11:56:59.110Z,29388.8
2023-03-06T11:57:59.247Z,29388.8
2023-03-06T11:58:59.379Z,29388.8
2023-03-06T11:59:59.534Z,22999.04
2023-03-06T12:00:59.674Z,20592.64
2023-03-06T12:01:59.910Z,20592.64
2023-03-06T12:03:00.289Z,20592.64
2023-03-06T12:04:00.477Z,18391.04
2023-03-06T12:05:00.718Z,16394.24
2023-03-06T12:06:01.247Z,12800
2023-03-06T12:07:01.377Z,11397.12
2023-03-06T12:08:01.511Z,11397.12
2023-03-06T12:09:01.678Z,11397.12
2023-03-06T12:10:01.819Z,11397.12
2023-03-06T12:11:01.960Z,15994.88
2023-03-06T12:12:02.098Z,15994.88
2023-03-06T12:13:02.242Z,14192.64
2023-03-06T12:14:03.627Z,12595.2
2023-03-06T12:15:04.526Z,11192.32
2023-03-06T12:16:04.703Z,11192.32
2023-03-06T12:17:04.907Z,12595.2
2023-03-06T12:18:05.036Z,15790.08
2023-03-06T12:19:05.182Z,14192.64
2023-03-06T12:20:05.335Z,14192.64
2023-03-06T12:21:05.480Z,12595.2
2023-03-06T12:22:05.639Z,12595.2
2023-03-06T12:23:14.767Z,11192.32
2023-03-06T12:24:16.198Z,9999.36
2023-03-06T12:25:16.335Z,7956.48
2023-03-06T12:26:16.474Z,7075.84
2023-03-06T12:27:16.607Z,6318.08
2023-03-06T12:28:16.761Z,5657.6
2023-03-06T12:29:16.895Z,5657.6
2023-03-06T12:30:17.031Z,5657.6
2023-03-06T12:31:17.169Z,5657.6
2023-03-06T12:32:17.483Z,6236.16
2023-03-06T12:33:17.997Z,6236.16
2023-03-06T12:34:18.150Z,6236.16
2023-03-06T12:35:18.299Z,6917.12
2023-03-06T12:36:18.618Z,6917.12
2023-03-06T12:37:18.762Z,6917.12
2023-03-06T12:38:18.944Z,6917.12
2023-03-06T12:39:19.095Z,6917.12
2023-03-06T12:40:19.253Z,6215.68
2023-03-06T12:41:19.713Z,6215.68
2023-03-06T12:42:23.355Z,6215.68
2023-03-06T12:43:24.011Z,6476.8
2023-03-06T12:44:24.147Z,6476.8
2023-03-06T12:45:24.278Z,6476.8
2023-03-06T12:46:24.500Z,6476.8
2023-03-06T12:47:24.904Z,6476.8
2023-03-06T12:48:25.030Z,6476.8
2023-03-06T12:49:31.734Z,6476.8
2023-03-06T12:50:33.608Z,6400
2023-03-06T12:51:33.751Z,6400
2023-03-06T12:52:33.913Z,6400
2023-03-06T12:53:34.057Z,6400
2023-03-06T12:54:34.218Z,6400
2023-03-06T12:55:34.350Z,7137.28
2023-03-06T12:56:34.481Z,7879.68
2023-03-06T12:57:34.649Z,11192.32
2023-03-06T12:58:34.790Z,12390.4
2023-03-06T12:59:34.933Z,10997.76
2023-03-06T13:00:35.068Z,9697.28
2023-03-06T13:01:35.288Z,8719.36
2023-03-06T13:02:35.586Z,8719.36
2023-03-06T13:03:35.861Z,8719.36
2023-03-06T13:04:35.996Z,9835.52
2023-03-06T13:05:36.139Z,14397.44
2023-03-06T13:06:39.117Z,16599.04
2023-03-06T13:07:51.426Z,18790.4
2023-03-06T13:08:51.566Z,18790.4
2023-03-06T13:09:51.699Z,16793.6
2023-03-06T13:10:51.838Z,14991.36
2023-03-06T13:11:51.974Z,14991.36
2023-03-06T13:12:52.149Z,18790.4
2023-03-06T13:13:52.308Z,18790.4
2023-03-06T13:14:54.735Z,20992
2023-03-06T13:15:55.468Z,18790.4
2023-03-06T13:16:55.622Z,18790.4
2023-03-06T13:17:55.815Z,16793.6
2023-03-06T13:18:55.948Z,14796.8
2023-03-06T13:19:56.096Z,13199.36
2023-03-06T13:20:56.228Z,13199.36
2023-03-06T13:21:56.380Z,13199.36
2023-03-06T13:22:56.524Z,13199.36
2023-03-06T13:23:56.656Z,14592